sensor_id;sensor_type;location;lat;lon;timestamp;P1;durP1;ratioP1;P2;durP2;ratioP2
43809;SDS011;29440;48.208;11.162;2022-07-23T00:01:23;9.20;;;7.97;;
43809;SDS011;29440;48.208;11.162;2022-07-23T00:03:49;9.07;;;8.18;;
43809;SDS011;29440;48.208;11.162;2022-07-23T00:06:16;8.73;;;7.65;;
43809;SDS011;29440;48.208;11.162;2022-07-23T00:08:42;14.23;;;7.93;;
43809;SDS011;29440;48.208;11.162;2022-07-23T00:11:08;10.43;;;8.00;;
43809;SDS011;29440;48.208;11.162;2022-07-23T00:13:34;11.85;;;8.48;;
43809;SDS011;29440;48.208;11.162;2022-07-23T00:16:01;10.95;;;7.63;;
43809;SDS011;29440;48.208;11.162;2022-07-23T00:18:27;10.32;;;8.45;;
43809;SDS011;29440;48.208;11.162;2022-07-23T00:20:52;10.77;;;8.10;;
43809;SDS011;29440;48.208;11.162;2022-07-23T00:23:18;9.70;;;7.93;;
43809;SDS011;29440;48.208;11.162;2022-07-23T00:25:44;9.98;;;8.48;;
43809;SDS011;29440;48.208;11.162;2022-07-23T00:28:10;8.85;;;7.57;;
43809;SDS011;29440;48.208;11.162;2022-07-23T00:30:36;11.77;;;7.53;;
43809;SDS011;29440;48.208;11.162;2022-07-23T00:33:04;9.93;;;7.53;;
43809;SDS011;29440;48.208;11.162;2022-07-23T00:35:32;9.05;;;7.90;;
43809;SDS011;29440;48.208;11.162;2022-07-23T00:38:00;12.63;;;8.52;;
43809;SDS011;29440;48.208;11.162;2022-07-23T00:40:26;10.13;;;8.25;;
43809;SDS011;29440;48.208;11.162;2022-07-23T00:42:53;13.98;;;8.65;;
43809;SDS011;29440;48.208;11.162;2022-07-23T00:45:19;12.95;;;8.77;;
43809;SDS011;29440;48.208;11.162;2022-07-23T00:47:45;8.57;;;7.57;;
43809;SDS011;29440;48.208;11.162;2022-07-23T00:50:11;9.73;;;7.82;;
43809;SDS011;29440;48.208;11.162;2022-07-23T00:52:37;8.35;;;6.65;;
43809;SDS011;29440;48.208;11.162;2022-07-23T00:55:05;8.30;;;6.78;;
43809;SDS011;29440;48.208;11.162;2022-07-23T00:57:31;10.10;;;6.50;;
43809;SDS011;29440;48.208;11.162;2022-07-23T00:59:57;12.10;;;6.50;;
43809;SDS011;29440;48.208;11.162;2022-07-23T01:02:23;7.35;;;6.57;;
43809;SDS011;29440;48.208;11.162;2022-07-23T01:04:49;10.05;;;6.90;;
43809;SDS011;29440;48.208;11.162;2022-07-23T01:07:16;9.25;;;6.97;;
43809;SDS011;29440;48.208;11.162;2022-07-23T01:09:44;17.50;;;7.13;;
43809;SDS011;29440;48.208;11.162;2022-07-23T01:12:11;18.77;;;6.40;;
43809;SDS011;29440;48.208;11.162;2022-07-23T01:14:37;11.90;;;7.10;;
43809;SDS011;29440;48.208;11.162;2022-07-23T01:17:03;13.57;;;6.57;;
43809;SDS011;29440;48.208;11.162;2022-07-23T01:19:29;11.43;;;5.97;;
43809;SDS011;29440;48.208;11.162;2022-07-23T01:21:55;9.88;;;6.28;;
43809;SDS011;29440;48.208;11.162;2022-07-23T01:24:23;8.35;;;5.40;;
43809;SDS011;29440;48.208;11.162;2022-07-23T01:26:49;7.60;;;5.80;;
43809;SDS011;29440;48.208;11.162;2022-07-23T01:29:15;10.85;;;6.10;;
43809;SDS011;29440;48.208;11.162;2022-07-23T01:31:41;8.80;;;5.97;;
43809;SDS011;29440;48.208;11.162;2022-07-23T01:34:07;9.07;;;6.03;;
43809;SDS011;29440;48.208;11.162;2022-07-23T01:36:34;8.65;;;6.22;;
43809;SDS011;29440;48.208;11.162;2022-07-23T01:39:00;9.75;;;6.57;;
43809;SDS011;29440;48.208;11.162;2022-07-23T01:41:26;8.32;;;6.32;;
43809;SDS011;29440;48.208;11.162;2022-07-23T01:43:52;8.70;;;6.47;;
43809;SDS011;29440;48.208;11.162;2022-07-23T01:46:17;9.32;;;6.18;;
43809;SDS011;29440;48.208;11.162;2022-07-23T01:48:43;11.88;;;6.30;;
43809;SDS011;29440;48.208;11.162;2022-07-23T01:51:14;10.98;;;6.80;;
43809;SDS011;29440;48.208;11.162;2022-07-23T01:53:39;9.10;;;7.18;;
43809;SDS011;29440;48.208;11.162;2022-07-23T01:56:05;8.15;;;6.80;;
43809;SDS011;29440;48.208;11.162;2022-07-23T01:58:31;10.30;;;6.97;;
43809;SDS011;29440;48.208;11.162;2022-07-23T02:00:57;7.85;;;6.93;;
43809;SDS011;29440;48.208;11.162;2022-07-23T02:03:22;8.93;;;6.90;;
43809;SDS011;29440;48.208;11.162;2022-07-23T02:05:48;15.38;;;7.38;;
43809;SDS011;29440;48.208;11.162;2022-07-23T02:08:14;8.85;;;6.50;;
43809;SDS011;29440;48.208;11.162;2022-07-23T02:10:39;12.15;;;7.90;;
43809;SDS011;29440;48.208;11.162;2022-07-23T02:13:05;9.65;;;7.38;;
43809;SDS011;29440;48.208;11.162;2022-07-23T02:15:31;10.10;;;7.57;;
43809;SDS011;29440;48.208;11.162;2022-07-23T02:17:57;11.65;;;7.50;;
43809;SDS011;29440;48.208;11.162;2022-07-23T02:20:23;9.27;;;7.30;;
43809;SDS011;29440;48.208;11.162;2022-07-23T02:22:49;10.13;;;6.38;;
43809;SDS011;29440;48.208;11.162;2022-07-23T02:25:15;10.63;;;7.05;;
43809;SDS011;29440;48.208;11.162;2022-07-23T02:27:42;10.15;;;7.18;;
43809;SDS011;29440;48.208;11.162;2022-07-23T02:30:07;9.00;;;6.47;;
43809;SDS011;29440;48.208;11.162;2022-07-23T02:32:34;9.65;;;7.00;;
43809;SDS011;29440;48.208;11.162;2022-07-23T02:35:00;9.85;;;6.43;;
43809;SDS011;29440;48.208;11.162;2022-07-23T02:37:27;13.52;;;7.57;;
43809;SDS011;29440;48.208;11.162;2022-07-23T02:39:52;8.95;;;6.90;;
43809;SDS011;29440;48.208;11.162;2022-07-23T02:42:18;10.40;;;7.57;;
43809;SDS011;29440;48.208;11.162;2022-07-23T02:44:44;10.57;;;6.50;;
43809;SDS011;29440;48.208;11.162;2022-07-23T02:47:09;8.45;;;6.38;;
43809;SDS011;29440;48.208;11.162;2022-07-23T02:49:35;9.75;;;6.82;;
43809;SDS011;29440;48.208;11.162;2022-07-23T02:52:01;13.13;;;7.25;;
43809;SDS011;29440;48.208;11.162;2022-07-23T02:54:27;9.45;;;7.38;;
43809;SDS011;29440;48.208;11.162;2022-07-23T02:56:52;14.60;;;7.28;;
43809;SDS011;29440;48.208;11.162;2022-07-23T02:59:18;7.57;;;6.00;;
43809;SDS011;29440;48.208;11.162;2022-07-23T03:01:44;8.93;;;5.57;;
43809;SDS011;29440;48.208;11.162;2022-07-23T03:04:10;6.47;;;4.65;;
43809;SDS011;29440;48.208;11.162;2022-07-23T03:06:37;7.88;;;4.25;;
43809;SDS011;29440;48.208;11.162;2022-07-23T03:09:03;6.18;;;4.00;;
43809;SDS011;29440;48.208;11.162;2022-07-23T03:11:32;5.60;;;3.40;;
43809;SDS011;29440;48.208;11.162;2022-07-23T03:13:57;6.35;;;3.42;;
43809;SDS011;29440;48.208;11.162;2022-07-23T03:16:23;4.53;;;3.40;;
43809;SDS011;29440;48.208;11.162;2022-07-23T03:18:49;4.60;;;3.45;;
43809;SDS011;29440;48.208;11.162;2022-07-23T03:21:14;6.03;;;3.70;;
43809;SDS011;29440;48.208;11.162;2022-07-23T03:23:40;5.43;;;4.13;;
43809;SDS011;29440;48.208;11.162;2022-07-23T03:26:05;6.20;;;4.28;;
43809;SDS011;29440;48.208;11.162;2022-07-23T03:28:31;7.22;;;4.35;;
43809;SDS011;29440;48.208;11.162;2022-07-23T03:30:57;6.57;;;4.30;;
43809;SDS011;29440;48.208;11.162;2022-07-23T03:33:22;5.60;;;4.70;;
43809;SDS011;29440;48.208;11.162;2022-07-23T03:35:48;7.53;;;5.20;;
43809;SDS011;29440;48.208;11.162;2022-07-23T03:38:14;7.60;;;4.43;;
43809;SDS011;29440;48.208;11.162;2022-07-23T03:40:41;8.40;;;4.30;;
43809;SDS011;29440;48.208;11.162;2022-07-23T03:43:06;7.47;;;4.45;;
43809;SDS011;29440;48.208;11.162;2022-07-23T03:45:32;6.78;;;4.05;;
43809;SDS011;29440;48.208;11.162;2022-07-23T03:47:58;5.28;;;4.10;;
43809;SDS011;29440;48.208;11.162;2022-07-23T03:50:24;6.53;;;4.03;;
43809;SDS011;29440;48.208;11.162;2022-07-23T03:55:18;8.00;;;4.10;;
43809;SDS011;29440;48.208;11.162;2022-07-23T03:57:43;9.02;;;4.10;;
43809;SDS011;29440;48.208;11.162;2022-07-23T04:00:10;5.10;;;3.38;;
43809;SDS011;29440;48.208;11.162;2022-07-23T04:02:36;4.70;;;3.90;;
43809;SDS011;29440;48.208;11.162;2022-07-23T04:05:03;7.75;;;3.90;;
43809;SDS011;29440;48.208;11.162;2022-07-23T04:07:29;5.72;;;3.53;;
43809;SDS011;29440;48.208;11.162;2022-07-23T04:09:54;5.88;;;3.92;;
43809;SDS011;29440;48.208;11.162;2022-07-23T04:12:20;5.68;;;3.50;;
43809;SDS011;29440;48.208;11.162;2022-07-23T04:14:45;6.65;;;4.00;;
43809;SDS011;29440;48.208;11.162;2022-07-23T04:17:11;5.82;;;3.70;;
43809;SDS011;29440;48.208;11.162;2022-07-23T04:19:37;6.78;;;3.53;;
43809;SDS011;29440;48.208;11.162;2022-07-23T04:22:06;5.90;;;3.85;;
43809;SDS011;29440;48.208;11.162;2022-07-23T04:24:33;4.90;;;3.60;;
43809;SDS011;29440;48.208;11.162;2022-07-23T04:26:58;5.28;;;3.63;;
43809;SDS011;29440;48.208;11.162;2022-07-23T04:29:24;6.20;;;3.70;;
43809;SDS011;29440;48.208;11.162;2022-07-23T04:31:50;4.30;;;3.17;;
43809;SDS011;29440;48.208;11.162;2022-07-23T04:34:16;8.52;;;3.53;;
43809;SDS011;29440;48.208;11.162;2022-07-23T04:36:41;9.82;;;4.15;;
43809;SDS011;29440;48.208;11.162;2022-07-23T04:39:07;4.78;;;4.13;;
43809;SDS011;29440;48.208;11.162;2022-07-23T04:41:32;5.43;;;3.85;;
43809;SDS011;29440;48.208;11.162;2022-07-23T04:43:59;5.03;;;4.05;;
43809;SDS011;29440;48.208;11.162;2022-07-23T04:46:25;6.18;;;3.53;;
43809;SDS011;29440;48.208;11.162;2022-07-23T04:48:50;4.65;;;3.58;;
43809;SDS011;29440;48.208;11.162;2022-07-23T04:51:15;5.10;;;3.83;;
43809;SDS011;29440;48.208;11.162;2022-07-23T04:53:41;5.53;;;4.07;;
43809;SDS011;29440;48.208;11.162;2022-07-23T04:56:07;4.93;;;4.25;;
43809;SDS011;29440;48.208;11.162;2022-07-23T04:58:32;4.63;;;3.90;;
43809;SDS011;29440;48.208;11.162;2022-07-23T05:00:58;5.53;;;3.92;;
43809;SDS011;29440;48.208;11.162;2022-07-23T05:03:23;3.35;;;3.03;;
43809;SDS011;29440;48.208;11.162;2022-07-23T05:05:49;6.55;;;4.15;;
43809;SDS011;29440;48.208;11.162;2022-07-23T05:08:14;5.07;;;3.85;;
43809;SDS011;29440;48.208;11.162;2022-07-23T05:10:40;6.88;;;3.55;;
43809;SDS011;29440;48.208;11.162;2022-07-23T05:13:06;7.10;;;3.60;;
43809;SDS011;29440;48.208;11.162;2022-07-23T05:15:31;5.35;;;3.70;;
43809;SDS011;29440;48.208;11.162;2022-07-23T05:17:57;4.22;;;3.50;;
43809;SDS011;29440;48.208;11.162;2022-07-23T05:20:30;5.95;;;3.42;;
43809;SDS011;29440;48.208;11.162;2022-07-23T05:22:56;5.70;;;3.10;;
43809;SDS011;29440;48.208;11.162;2022-07-23T05:25:21;4.78;;;3.20;;
43809;SDS011;29440;48.208;11.162;2022-07-23T05:27:47;5.72;;;3.42;;
43809;SDS011;29440;48.208;11.162;2022-07-23T05:30:17;3.90;;;3.40;;
43809;SDS011;29440;48.208;11.162;2022-07-23T05:32:42;3.65;;;3.03;;
43809;SDS011;29440;48.208;11.162;2022-07-23T05:35:11;4.53;;;3.30;;
43809;SDS011;29440;48.208;11.162;2022-07-23T05:37:37;6.97;;;3.08;;
43809;SDS011;29440;48.208;11.162;2022-07-23T05:40:03;6.32;;;3.60;;
43809;SDS011;29440;48.208;11.162;2022-07-23T05:42:34;4.13;;;3.30;;
43809;SDS011;29440;48.208;11.162;2022-07-23T05:45:00;8.57;;;3.30;;
43809;SDS011;29440;48.208;11.162;2022-07-23T05:47:26;5.40;;;3.70;;
43809;SDS011;29440;48.208;11.162;2022-07-23T05:49:51;7.07;;;3.92;;
43809;SDS011;29440;48.208;11.162;2022-07-23T05:52:17;4.28;;;3.60;;
43809;SDS011;29440;48.208;11.162;2022-07-23T05:54:42;7.55;;;3.90;;
43809;SDS011;29440;48.208;11.162;2022-07-23T05:57:08;4.75;;;4.07;;
43809;SDS011;29440;48.208;11.162;2022-07-23T05:59:33;6.32;;;3.55;;
43809;SDS011;29440;48.208;11.162;2022-07-23T06:01:59;7.55;;;4.00;;
43809;SDS011;29440;48.208;11.162;2022-07-23T06:04:25;6.22;;;4.03;;
43809;SDS011;29440;48.208;11.162;2022-07-23T06:06:50;6.38;;;3.55;;
43809;SDS011;29440;48.208;11.162;2022-07-23T06:09:16;5.53;;;3.53;;
43809;SDS011;29440;48.208;11.162;2022-07-23T06:11:43;5.32;;;3.63;;
43809;SDS011;29440;48.208;11.162;2022-07-23T06:14:08;5.03;;;4.07;;
43809;SDS011;29440;48.208;11.162;2022-07-23T06:16:34;5.03;;;3.65;;
43809;SDS011;29440;48.208;11.162;2022-07-23T06:18:59;4.53;;;3.92;;
43809;SDS011;29440;48.208;11.162;2022-07-23T06:21:25;8.55;;;3.95;;
43809;SDS011;29440;48.208;11.162;2022-07-23T06:23:50;5.82;;;3.83;;
43809;SDS011;29440;48.208;11.162;2022-07-23T06:26:16;6.70;;;3.78;;
43809;SDS011;29440;48.208;11.162;2022-07-23T06:28:41;6.72;;;4.40;;
43809;SDS011;29440;48.208;11.162;2022-07-23T06:31:07;9.77;;;4.70;;
43809;SDS011;29440;48.208;11.162;2022-07-23T06:33:33;6.90;;;4.90;;
43809;SDS011;29440;48.208;11.162;2022-07-23T06:35:59;7.55;;;4.68;;
43809;SDS011;29440;48.208;11.162;2022-07-23T06:38:24;10.85;;;5.05;;
43809;SDS011;29440;48.208;11.162;2022-07-23T06:40:50;7.05;;;5.53;;
43809;SDS011;29440;48.208;11.162;2022-07-23T06:43:16;7.07;;;4.90;;
43809;SDS011;29440;48.208;11.162;2022-07-23T06:45:42;8.07;;;4.93;;
43809;SDS011;29440;48.208;11.162;2022-07-23T06:48:07;6.75;;;5.20;;
43809;SDS011;29440;48.208;11.162;2022-07-23T06:50:33;6.65;;;5.10;;
43809;SDS011;29440;48.208;11.162;2022-07-23T06:52:59;8.00;;;5.32;;
43809;SDS011;29440;48.208;11.162;2022-07-23T06:55:25;6.97;;;5.25;;
43809;SDS011;29440;48.208;11.162;2022-07-23T06:57:50;7.90;;;5.47;;
43809;SDS011;29440;48.208;11.162;2022-07-23T07:00:16;6.55;;;5.10;;
43809;SDS011;29440;48.208;11.162;2022-07-23T07:02:41;7.90;;;5.65;;
43809;SDS011;29440;48.208;11.162;2022-07-23T07:05:07;8.00;;;5.68;;
43809;SDS011;29440;48.208;11.162;2022-07-23T07:07:33;10.25;;;5.28;;
43809;SDS011;29440;48.208;11.162;2022-07-23T07:09:59;8.60;;;5.18;;
43809;SDS011;29440;48.208;11.162;2022-07-23T07:12:24;8.48;;;5.72;;
43809;SDS011;29440;48.208;11.162;2022-07-23T07:14:50;6.50;;;5.13;;
43809;SDS011;29440;48.208;11.162;2022-07-23T07:17:15;10.13;;;5.50;;
43809;SDS011;29440;48.208;11.162;2022-07-23T07:19:41;8.95;;;5.78;;
43809;SDS011;29440;48.208;11.162;2022-07-23T07:22:07;6.63;;;4.90;;
43809;SDS011;29440;48.208;11.162;2022-07-23T07:24:32;8.23;;;5.57;;
43809;SDS011;29440;48.208;11.162;2022-07-23T07:26:58;9.73;;;5.35;;
43809;SDS011;29440;48.208;11.162;2022-07-23T07:29:24;7.35;;;5.57;;
43809;SDS011;29440;48.208;11.162;2022-07-23T07:31:49;7.47;;;5.65;;
43809;SDS011;29440;48.208;11.162;2022-07-23T07:34:15;8.15;;;5.57;;
43809;SDS011;29440;48.208;11.162;2022-07-23T07:36:41;7.70;;;6.00;;
43809;SDS011;29440;48.208;11.162;2022-07-23T07:39:08;6.90;;;5.63;;
43809;SDS011;29440;48.208;11.162;2022-07-23T07:41:35;9.27;;;5.93;;
43809;SDS011;29440;48.208;11.162;2022-07-23T07:44:01;10.57;;;6.30;;
43809;SDS011;29440;48.208;11.162;2022-07-23T07:46:26;7.65;;;5.47;;
43809;SDS011;29440;48.208;11.162;2022-07-23T07:48:52;10.30;;;6.20;;
43809;SDS011;29440;48.208;11.162;2022-07-23T07:51:18;10.13;;;5.90;;
43809;SDS011;29440;48.208;11.162;2022-07-23T07:53:44;12.63;;;6.10;;
43809;SDS011;29440;48.208;11.162;2022-07-23T07:56:09;8.10;;;6.43;;
43809;SDS011;29440;48.208;11.162;2022-07-23T07:58:35;10.90;;;5.68;;
43809;SDS011;29440;48.208;11.162;2022-07-23T08:01:01;8.77;;;6.40;;
43809;SDS011;29440;48.208;11.162;2022-07-23T08:03:27;10.27;;;6.28;;
43809;SDS011;29440;48.208;11.162;2022-07-23T08:05:53;6.43;;;5.43;;
43809;SDS011;29440;48.208;11.162;2022-07-23T08:08:19;8.65;;;5.63;;
43809;SDS011;29440;48.208;11.162;2022-07-23T08:10:45;10.00;;;6.75;;
43809;SDS011;29440;48.208;11.162;2022-07-23T08:13:12;7.93;;;6.10;;
43809;SDS011;29440;48.208;11.162;2022-07-23T08:15:39;9.82;;;6.28;;
43809;SDS011;29440;48.208;11.162;2022-07-23T08:18:05;7.30;;;6.13;;
43809;SDS011;29440;48.208;11.162;2022-07-23T08:20:31;7.93;;;6.25;;
43809;SDS011;29440;48.208;11.162;2022-07-23T08:22:59;8.40;;;6.13;;
43809;SDS011;29440;48.208;11.162;2022-07-23T08:25:29;7.63;;;6.38;;
43809;SDS011;29440;48.208;11.162;2022-07-23T08:28:10;7.38;;;6.00;;
43809;SDS011;29440;48.208;11.162;2022-07-23T08:30:38;9.23;;;6.82;;
43809;SDS011;29440;48.208;11.162;2022-07-23T08:33:06;7.53;;;5.63;;
43809;SDS011;29440;48.208;11.162;2022-07-23T08:35:38;6.07;;;5.05;;
43809;SDS011;29440;48.208;11.162;2022-07-23T08:38:10;7.00;;;5.15;;
43809;SDS011;29440;48.208;11.162;2022-07-23T08:40:43;9.35;;;5.80;;
43809;SDS011;29440;48.208;11.162;2022-07-23T08:43:14;8.48;;;6.40;;
43809;SDS011;29440;48.208;11.162;2022-07-23T08:45:41;10.07;;;5.07;;
43809;SDS011;29440;48.208;11.162;2022-07-23T08:48:15;6.65;;;5.30;;
43809;SDS011;29440;48.208;11.162;2022-07-23T08:53:13;7.82;;;5.05;;
43809;SDS011;29440;48.208;11.162;2022-07-23T08:55:40;6.15;;;5.55;;
43809;SDS011;29440;48.208;11.162;2022-07-23T08:58:09;6.53;;;5.88;;
43809;SDS011;29440;48.208;11.162;2022-07-23T09:00:34;7.57;;;5.45;;
43809;SDS011;29440;48.208;11.162;2022-07-23T09:03:00;8.80;;;5.53;;
43809;SDS011;29440;48.208;11.162;2022-07-23T09:05:26;7.22;;;6.20;;
43809;SDS011;29440;48.208;11.162;2022-07-23T09:08:09;6.97;;;4.63;;
43809;SDS011;29440;48.208;11.162;2022-07-23T09:13:25;8.38;;;5.15;;
43809;SDS011;29440;48.208;11.162;2022-07-23T09:15:52;9.48;;;5.68;;
43809;SDS011;29440;48.208;11.162;2022-07-23T09:18:18;7.00;;;6.05;;
43809;SDS011;29440;48.208;11.162;2022-07-23T09:20:44;7.72;;;5.72;;
43809;SDS011;29440;48.208;11.162;2022-07-23T09:23:10;7.65;;;4.97;;
43809;SDS011;29440;48.208;11.162;2022-07-23T09:25:36;8.65;;;5.32;;
43809;SDS011;29440;48.208;11.162;2022-07-23T09:28:01;6.60;;;5.15;;
43809;SDS011;29440;48.208;11.162;2022-07-23T09:30:31;5.50;;;5.00;;
43809;SDS011;29440;48.208;11.162;2022-07-23T09:33:12;7.47;;;4.90;;
43809;SDS011;29440;48.208;11.162;2022-07-23T09:35:44;8.13;;;5.13;;
43809;SDS011;29440;48.208;11.162;2022-07-23T09:38:21;5.68;;;4.75;;
43809;SDS011;29440;48.208;11.162;2022-07-23T09:43:33;5.93;;;3.65;;
43809;SDS011;29440;48.208;11.162;2022-07-23T09:48:46;4.75;;;3.72;;
43809;SDS011;29440;48.208;11.162;2022-07-23T09:51:12;6.90;;;4.28;;
43809;SDS011;29440;48.208;11.162;2022-07-23T09:53:59;5.13;;;3.53;;
43809;SDS011;29440;48.208;11.162;2022-07-23T09:56:24;5.32;;;3.38;;
43809;SDS011;29440;48.208;11.162;2022-07-23T09:58:53;5.80;;;3.67;;
43809;SDS011;29440;48.208;11.162;2022-07-23T10:01:36;5.70;;;3.95;;
43809;SDS011;29440;48.208;11.162;2022-07-23T10:04:03;5.25;;;3.42;;
43809;SDS011;29440;48.208;11.162;2022-07-23T10:06:30;6.47;;;3.53;;
43809;SDS011;29440;48.208;11.162;2022-07-23T10:08:56;4.82;;;3.00;;
43809;SDS011;29440;48.208;11.162;2022-07-23T10:11:24;4.38;;;3.38;;
43809;SDS011;29440;48.208;11.162;2022-07-23T10:13:52;5.90;;;3.47;;
43809;SDS011;29440;48.208;11.162;2022-07-23T10:16:26;5.32;;;3.70;;
43809;SDS011;29440;48.208;11.162;2022-07-23T10:18:51;4.28;;;3.83;;
43809;SDS011;29440;48.208;11.162;2022-07-23T10:21:39;7.20;;;3.67;;
43809;SDS011;29440;48.208;11.162;2022-07-23T10:24:18;5.95;;;3.38;;
43809;SDS011;29440;48.208;11.162;2022-07-23T10:29:45;4.32;;;3.65;;
43809;SDS011;29440;48.208;11.162;2022-07-23T10:37:32;4.85;;;3.70;;
43809;SDS011;29440;48.208;11.162;2022-07-23T10:42:48;5.68;;;3.55;;
43809;SDS011;29440;48.208;11.162;2022-07-23T10:45:35;5.45;;;3.47;;
43809;SDS011;29440;48.208;11.162;2022-07-23T10:48:12;9.55;;;3.80;;
43809;SDS011;29440;48.208;11.162;2022-07-23T10:59:18;4.95;;;4.10;;
43809;SDS011;29440;48.208;11.162;2022-07-23T11:01:44;5.93;;;4.20;;
43809;SDS011;29440;48.208;11.162;2022-07-23T11:04:09;6.05;;;4.43;;
43809;SDS011;29440;48.208;11.162;2022-07-23T11:12:17;5.43;;;3.83;;
43809;SDS011;29440;48.208;11.162;2022-07-23T11:15:01;6.90;;;4.32;;
43809;SDS011;29440;48.208;11.162;2022-07-23T11:20:16;5.53;;;4.85;;
43809;SDS011;29440;48.208;11.162;2022-07-23T11:27:47;5.30;;;4.65;;
43809;SDS011;29440;48.208;11.162;2022-07-23T11:35:33;5.72;;;5.13;;
43809;SDS011;29440;48.208;11.162;2022-07-23T11:38:07;7.63;;;4.40;;
43809;SDS011;29440;48.208;11.162;2022-07-23T11:40:34;7.83;;;4.33;;
43809;SDS011;29440;48.208;11.162;2022-07-23T11:43:04;5.90;;;5.00;;
43809;SDS011;29440;48.208;11.162;2022-07-23T11:45:33;9.55;;;5.05;;
43809;SDS011;29440;48.208;11.162;2022-07-23T11:48:07;7.57;;;4.70;;
43809;SDS011;29440;48.208;11.162;2022-07-23T11:50:41;6.57;;;4.93;;
43809;SDS011;29440;48.208;11.162;2022-07-23T11:53:07;7.80;;;4.77;;
43809;SDS011;29440;48.208;11.162;2022-07-23T11:55:33;5.75;;;4.65;;
43809;SDS011;29440;48.208;11.162;2022-07-23T11:58:04;6.55;;;4.93;;
43809;SDS011;29440;48.208;11.162;2022-07-23T12:00:45;6.45;;;4.68;;
43809;SDS011;29440;48.208;11.162;2022-07-23T12:03:11;5.00;;;4.38;;
43809;SDS011;29440;48.208;11.162;2022-07-23T12:05:37;6.32;;;5.07;;
43809;SDS011;29440;48.208;11.162;2022-07-23T12:08:05;7.95;;;4.55;;
43809;SDS011;29440;48.208;11.162;2022-07-23T12:10:36;6.63;;;5.20;;
43809;SDS011;29440;48.208;11.162;2022-07-23T12:13:19;8.23;;;4.90;;
43809;SDS011;29440;48.208;11.162;2022-07-23T12:15:54;6.45;;;5.05;;
43809;SDS011;29440;48.208;11.162;2022-07-23T12:18:22;6.30;;;4.95;;
43809;SDS011;29440;48.208;11.162;2022-07-23T12:20:57;5.28;;;4.78;;
43809;SDS011;29440;48.208;11.162;2022-07-23T12:23:28;7.50;;;5.05;;
43809;SDS011;29440;48.208;11.162;2022-07-23T12:25:54;6.28;;;5.22;;
43809;SDS011;29440;48.208;11.162;2022-07-23T12:28:30;5.18;;;4.60;;
43809;SDS011;29440;48.208;11.162;2022-07-23T12:31:02;7.55;;;4.95;;
43809;SDS011;29440;48.208;11.162;2022-07-23T12:33:29;5.82;;;4.82;;
43809;SDS011;29440;48.208;11.162;2022-07-23T12:35:56;6.38;;;4.47;;
43809;SDS011;29440;48.208;11.162;2022-07-23T12:38:24;6.97;;;4.50;;
43809;SDS011;29440;48.208;11.162;2022-07-23T12:40:55;6.50;;;5.28;;
43809;SDS011;29440;48.208;11.162;2022-07-23T12:43:28;6.40;;;4.68;;
43809;SDS011;29440;48.208;11.162;2022-07-23T12:46:03;6.43;;;5.00;;
43809;SDS011;29440;48.208;11.162;2022-07-23T12:48:30;5.25;;;4.72;;
43809;SDS011;29440;48.208;11.162;2022-07-23T12:50:59;9.52;;;5.15;;
43809;SDS011;29440;48.208;11.162;2022-07-23T12:53:36;7.30;;;5.75;;
43809;SDS011;29440;48.208;11.162;2022-07-23T12:56:08;7.22;;;4.88;;
43809;SDS011;29440;48.208;11.162;2022-07-23T12:58:48;7.40;;;5.35;;
43809;SDS011;29440;48.208;11.162;2022-07-23T13:03:53;7.22;;;5.70;;
43809;SDS011;29440;48.208;11.162;2022-07-23T13:06:21;8.02;;;6.40;;
43809;SDS011;29440;48.208;11.162;2022-07-23T13:08:46;8.98;;;6.15;;
43809;SDS011;29440;48.208;11.162;2022-07-23T13:11:12;7.53;;;5.47;;
43809;SDS011;29440;48.208;11.162;2022-07-23T13:13:38;7.25;;;5.43;;
43809;SDS011;29440;48.208;11.162;2022-07-23T13:16:04;7.53;;;5.38;;
43809;SDS011;29440;48.208;11.162;2022-07-23T13:18:30;7.63;;;5.53;;
43809;SDS011;29440;48.208;11.162;2022-07-23T13:20:56;7.22;;;4.97;;
43809;SDS011;29440;48.208;11.162;2022-07-23T13:23:22;8.65;;;5.60;;
43809;SDS011;29440;48.208;11.162;2022-07-23T13:25:48;7.07;;;5.78;;
43809;SDS011;29440;48.208;11.162;2022-07-23T13:28:14;7.88;;;4.40;;
43809;SDS011;29440;48.208;11.162;2022-07-23T13:30:41;6.18;;;4.63;;
43809;SDS011;29440;48.208;11.162;2022-07-23T13:33:07;5.15;;;4.65;;
43809;SDS011;29440;48.208;11.162;2022-07-23T13:35:33;5.18;;;4.68;;
43809;SDS011;29440;48.208;11.162;2022-07-23T13:38:01;6.18;;;4.38;;
43809;SDS011;29440;48.208;11.162;2022-07-23T13:40:27;6.57;;;4.97;;
43809;SDS011;29440;48.208;11.162;2022-07-23T13:42:53;6.20;;;4.80;;
43809;SDS011;29440;48.208;11.162;2022-07-23T13:45:19;5.60;;;4.60;;
43809;SDS011;29440;48.208;11.162;2022-07-23T13:47:45;6.00;;;4.47;;
43809;SDS011;29440;48.208;11.162;2022-07-23T13:50:12;5.03;;;4.32;;
43809;SDS011;29440;48.208;11.162;2022-07-23T13:52:37;6.00;;;4.47;;
43809;SDS011;29440;48.208;11.162;2022-07-23T13:55:04;5.25;;;4.28;;
43809;SDS011;29440;48.208;11.162;2022-07-23T13:57:31;4.97;;;4.35;;
43809;SDS011;29440;48.208;11.162;2022-07-23T13:59:58;5.63;;;4.60;;
43809;SDS011;29440;48.208;11.162;2022-07-23T14:02:24;7.65;;;4.57;;
43809;SDS011;29440;48.208;11.162;2022-07-23T14:04:49;6.43;;;4.45;;
43809;SDS011;29440;48.208;11.162;2022-07-23T14:07:16;7.50;;;5.20;;
43809;SDS011;29440;48.208;11.162;2022-07-23T14:09:41;7.10;;;4.57;;
43809;SDS011;29440;48.208;11.162;2022-07-23T14:12:07;5.60;;;4.97;;
43809;SDS011;29440;48.208;11.162;2022-07-23T14:14:33;8.38;;;5.32;;
43809;SDS011;29440;48.208;11.162;2022-07-23T14:16:59;5.85;;;4.75;;
43809;SDS011;29440;48.208;11.162;2022-07-23T14:19:25;8.32;;;5.45;;
43809;SDS011;29440;48.208;11.162;2022-07-23T14:21:50;7.45;;;5.53;;
43809;SDS011;29440;48.208;11.162;2022-07-23T14:24:16;6.68;;;5.65;;
43809;SDS011;29440;48.208;11.162;2022-07-23T14:26:42;6.88;;;5.53;;
43809;SDS011;29440;48.208;11.162;2022-07-23T14:29:08;7.47;;;5.70;;
43809;SDS011;29440;48.208;11.162;2022-07-23T14:31:33;7.75;;;5.38;;
43809;SDS011;29440;48.208;11.162;2022-07-23T14:33:59;6.35;;;5.65;;
43809;SDS011;29440;48.208;11.162;2022-07-23T14:36:25;7.88;;;6.07;;
43809;SDS011;29440;48.208;11.162;2022-07-23T14:38:50;7.47;;;5.70;;
43809;SDS011;29440;48.208;11.162;2022-07-23T14:41:16;6.47;;;5.80;;
43809;SDS011;29440;48.208;11.162;2022-07-23T14:43:42;8.20;;;5.72;;
43809;SDS011;29440;48.208;11.162;2022-07-23T14:46:08;6.10;;;5.50;;
43809;SDS011;29440;48.208;11.162;2022-07-23T14:48:33;7.88;;;6.10;;
43809;SDS011;29440;48.208;11.162;2022-07-23T14:50:59;7.47;;;5.93;;
43809;SDS011;29440;48.208;11.162;2022-07-23T14:56:04;6.18;;;5.57;;
43809;SDS011;29440;48.208;11.162;2022-07-23T14:58:30;8.18;;;5.72;;
43809;SDS011;29440;48.208;11.162;2022-07-23T15:00:55;6.65;;;5.55;;
43809;SDS011;29440;48.208;11.162;2022-07-23T15:03:21;8.50;;;6.20;;
43809;SDS011;29440;48.208;11.162;2022-07-23T15:05:47;9.52;;;6.72;;
43809;SDS011;29440;48.208;11.162;2022-07-23T15:08:12;7.30;;;6.03;;
43809;SDS011;29440;48.208;11.162;2022-07-23T15:10:38;7.30;;;5.93;;
43809;SDS011;29440;48.208;11.162;2022-07-23T15:13:03;8.85;;;5.95;;
43809;SDS011;29440;48.208;11.162;2022-07-23T15:15:29;9.32;;;6.57;;
43809;SDS011;29440;48.208;11.162;2022-07-23T15:17:55;7.20;;;6.47;;
43809;SDS011;29440;48.208;11.162;2022-07-23T15:20:20;7.85;;;6.10;;
43809;SDS011;29440;48.208;11.162;2022-07-23T15:22:46;8.57;;;7.00;;
43809;SDS011;29440;48.208;11.162;2022-07-23T15:25:12;8.32;;;5.70;;
43809;SDS011;29440;48.208;11.162;2022-07-23T15:27:39;8.10;;;6.30;;
43809;SDS011;29440;48.208;11.162;2022-07-23T15:30:05;6.80;;;6.10;;